sensor_id;sensor_type;location;lat;lon;timestamp;temperature;humidity
29575;DHT22;16507;51.046;6.406;2022-07-23T00:01:19;16.50;99.90
29575;DHT22;16507;51.046;6.406;2022-07-23T00:03:44;16.50;99.90
29575;DHT22;16507;51.046;6.406;2022-07-23T00:06:10;16.50;99.90
29575;DHT22;16507;51.046;6.406;2022-07-23T00:08:36;16.50;99.90
29575;DHT22;16507;51.046;6.406;2022-07-23T00:11:01;16.40;99.90
29575;DHT22;16507;51.046;6.406;2022-07-23T00:13:27;16.40;99.90
29575;DHT22;16507;51.046;6.406;2022-07-23T00:15:53;16.40;99.90
29575;DHT22;16507;51.046;6.406;2022-07-23T00:18:19;16.30;99.90
29575;DHT22;16507;51.046;6.406;2022-07-23T00:20:44;16.30;99.90
29575;DHT22;16507;51.046;6.406;2022-07-23T00:23:10;16.30;99.90
29575;DHT22;16507;51.046;6.406;2022-07-23T00:25:35;16.30;99.90
29575;DHT22;16507;51.046;6.406;2022-07-23T00:28:02;16.20;99.90
29575;DHT22;16507;51.046;6.406;2022-07-23T00:30:29;16.20;99.90
29575;DHT22;16507;51.046;6.406;2022-07-23T00:32:57;16.10;99.90
29575;DHT22;16507;51.046;6.406;2022-07-23T00:35:30;16.10;99.90
29575;DHT22;16507;51.046;6.406;2022-07-23T00:37:56;16.10;99.90
29575;DHT22;16507;51.046;6.406;2022-07-23T00:40:23;16.10;99.90
29575;DHT22;16507;51.046;6.406;2022-07-23T00:42:49;16.10;99.90
29575;DHT22;16507;51.046;6.406;2022-07-23T00:45:15;16.10;99.90
29575;DHT22;16507;51.046;6.406;2022-07-23T00:47:40;16.10;99.90
29575;DHT22;16507;51.046;6.406;2022-07-23T00:50:08;16.00;99.90
29575;DHT22;16507;51.046;6.406;2022-07-23T00:52:34;16.00;99.90
29575;DHT22;16507;51.046;6.406;2022-07-23T00:55:00;15.90;99.90
29575;DHT22;16507;51.046;6.406;2022-07-23T00:57:27;15.70;99.90
29575;DHT22;16507;51.046;6.406;2022-07-23T00:59:52;15.70;99.90
29575;DHT22;16507;51.046;6.406;2022-07-23T01:02:18;15.60;99.90
29575;DHT22;16507;51.046;6.406;2022-07-23T01:04:44;15.60;99.90
29575;DHT22;16507;51.046;6.406;2022-07-23T01:07:10;15.50;99.90
29575;DHT22;16507;51.046;6.406;2022-07-23T01:09:36;15.40;99.90
29575;DHT22;16507;51.046;6.406;2022-07-23T01:12:03;15.30;99.90
29575;DHT22;16507;51.046;6.406;2022-07-23T01:14:28;15.30;99.90
29575;DHT22;16507;51.046;6.406;2022-07-23T01:16:54;15.30;99.90
29575;DHT22;16507;51.046;6.406;2022-07-23T01:19:20;15.30;99.90
29575;DHT22;16507;51.046;6.406;2022-07-23T01:21:50;15.20;99.90
29575;DHT22;16507;51.046;6.406;2022-07-23T01:24:16;15.10;99.90
29575;DHT22;16507;51.046;6.406;2022-07-23T01:26:45;15.10;99.90
29575;DHT22;16507;51.046;6.406;2022-07-23T01:29:12;15.00;99.90
29575;DHT22;16507;51.046;6.406;2022-07-23T01:31:38;15.00;99.90
29575;DHT22;16507;51.046;6.406;2022-07-23T01:34:04;15.00;99.90
29575;DHT22;16507;51.046;6.406;2022-07-23T01:36:30;15.00;99.90
29575;DHT22;16507;51.046;6.406;2022-07-23T01:38:56;15.00;99.90
29575;DHT22;16507;51.046;6.406;2022-07-23T01:41:21;15.00;99.90
29575;DHT22;16507;51.046;6.406;2022-07-23T01:43:47;14.90;99.90
29575;DHT22;16507;51.046;6.406;2022-07-23T01:46:13;14.90;99.90
29575;DHT22;16507;51.046;6.406;2022-07-23T01:48:39;14.90;99.90
29575;DHT22;16507;51.046;6.406;2022-07-23T01:51:05;14.80;99.90
29575;DHT22;16507;51.046;6.406;2022-07-23T01:53:30;14.80;99.90
29575;DHT22;16507;51.046;6.406;2022-07-23T01:56:00;14.80;99.90
29575;DHT22;16507;51.046;6.406;2022-07-23T01:58:26;14.60;99.90
29575;DHT22;16507;51.046;6.406;2022-07-23T02:00:52;14.60;99.90
29575;DHT22;16507;51.046;6.406;2022-07-23T02:03:18;14.50;99.90
29575;DHT22;16507;51.046;6.406;2022-07-23T02:05:44;14.50;99.90
29575;DHT22;16507;51.046;6.406;2022-07-23T02:08:10;14.50;99.90
29575;DHT22;16507;51.046;6.406;2022-07-23T02:10:36;14.40;99.90
29575;DHT22;16507;51.046;6.406;2022-07-23T02:13:01;14.40;99.90
29575;DHT22;16507;51.046;6.406;2022-07-23T02:15:27;14.40;99.90
29575;DHT22;16507;51.046;6.406;2022-07-23T02:17:54;14.40;99.90
29575;DHT22;16507;51.046;6.406;2022-07-23T02:20:20;14.40;99.90
29575;DHT22;16507;51.046;6.406;2022-07-23T02:22:45;14.30;99.90
29575;DHT22;16507;51.046;6.406;2022-07-23T02:25:11;14.20;99.90
29575;DHT22;16507;51.046;6.406;2022-07-23T02:27:37;14.20;99.90
29575;DHT22;16507;51.046;6.406;2022-07-23T02:30:03;14.10;99.90
29575;DHT22;16507;51.046;6.406;2022-07-23T02:32:29;14.10;99.90
29575;DHT22;16507;51.046;6.406;2022-07-23T02:34:55;14.10;99.90
29575;DHT22;16507;51.046;6.406;2022-07-23T02:37:20;14.10;99.90
29575;DHT22;16507;51.046;6.406;2022-07-23T02:39:46;14.00;99.90
29575;DHT22;16507;51.046;6.406;2022-07-23T02:42:14;14.00;99.90
29575;DHT22;16507;51.046;6.406;2022-07-23T02:44:39;14.10;99.90
29575;DHT22;16507;51.046;6.406;2022-07-23T02:47:05;14.00;99.90
29575;DHT22;16507;51.046;6.406;2022-07-23T02:49:31;13.90;99.90
29575;DHT22;16507;51.046;6.406;2022-07-23T02:51:56;13.90;99.90
29575;DHT22;16507;51.046;6.406;2022-07-23T02:54:22;14.00;99.90
29575;DHT22;16507;51.046;6.406;2022-07-23T02:56:48;14.10;99.90
29575;DHT22;16507;51.046;6.406;2022-07-23T02:59:13;14.10;99.90
29575;DHT22;16507;51.046;6.406;2022-07-23T03:01:39;14.00;99.90
29575;DHT22;16507;51.046;6.406;2022-07-23T03:04:04;14.00;99.90
29575;DHT22;16507;51.046;6.406;2022-07-23T03:06:30;14.00;99.90
29575;DHT22;16507;51.046;6.406;2022-07-23T03:08:56;14.10;99.90
29575;DHT22;16507;51.046;6.406;2022-07-23T03:11:21;14.30;99.90
29575;DHT22;16507;51.046;6.406;2022-07-23T03:13:47;14.40;99.90
29575;DHT22;16507;51.046;6.406;2022-07-23T03:16:12;14.30;99.90
29575;DHT22;16507;51.046;6.406;2022-07-23T03:18:38;14.30;99.90
29575;DHT22;16507;51.046;6.406;2022-07-23T03:21:04;14.20;99.90
29575;DHT22;16507;51.046;6.406;2022-07-23T03:23:29;14.20;99.90
29575;DHT22;16507;51.046;6.406;2022-07-23T03:25:55;14.10;99.90
29575;DHT22;16507;51.046;6.406;2022-07-23T03:28:21;14.10;99.90
29575;DHT22;16507;51.046;6.406;2022-07-23T03:30:47;14.10;99.90
29575;DHT22;16507;51.046;6.406;2022-07-23T03:33:13;14.10;99.90
29575;DHT22;16507;51.046;6.406;2022-07-23T03:35:39;14.10;99.90
29575;DHT22;16507;51.046;6.406;2022-07-23T03:38:05;14.10;99.90
29575;DHT22;16507;51.046;6.406;2022-07-23T03:40:30;14.10;99.90
29575;DHT22;16507;51.046;6.406;2022-07-23T03:42:56;14.00;99.90
29575;DHT22;16507;51.046;6.406;2022-07-23T03:45:22;14.20;99.90
29575;DHT22;16507;51.046;6.406;2022-07-23T03:47:47;14.10;99.90
29575;DHT22;16507;51.046;6.406;2022-07-23T03:50:13;14.20;99.90
29575;DHT22;16507;51.046;6.406;2022-07-23T03:52:39;14.20;99.90
29575;DHT22;16507;51.046;6.406;2022-07-23T03:55:05;14.10;99.90
29575;DHT22;16507;51.046;6.406;2022-07-23T03:57:31;14.10;99.90
29575;DHT22;16507;51.046;6.406;2022-07-23T03:59:56;14.20;99.90
29575;DHT22;16507;51.046;6.406;2022-07-23T04:02:22;14.20;99.90
29575;DHT22;16507;51.046;6.406;2022-07-23T04:04:48;14.30;99.90
29575;DHT22;16507;51.046;6.406;2022-07-23T04:07:14;14.40;99.90
29575;DHT22;16507;51.046;6.406;2022-07-23T04:09:39;14.40;99.90
29575;DHT22;16507;51.046;6.406;2022-07-23T04:12:08;14.30;99.90
29575;DHT22;16507;51.046;6.406;2022-07-23T04:14:33;14.30;99.90
29575;DHT22;16507;51.046;6.406;2022-07-23T04:16:59;14.30;99.90
29575;DHT22;16507;51.046;6.406;2022-07-23T04:19:26;14.40;99.90
29575;DHT22;16507;51.046;6.406;2022-07-23T04:21:51;14.40;99.90
29575;DHT22;16507;51.046;6.406;2022-07-23T04:24:17;14.40;99.90
29575;DHT22;16507;51.046;6.406;2022-07-23T04:26:44;14.40;99.90
29575;DHT22;16507;51.046;6.406;2022-07-23T04:29:10;14.50;99.90
29575;DHT22;16507;51.046;6.406;2022-07-23T04:31:36;14.50;99.90
29575;DHT22;16507;51.046;6.406;2022-07-23T04:34:02;14.60;99.90
29575;DHT22;16507;51.046;6.406;2022-07-23T04:36:27;14.60;99.90
29575;DHT22;16507;51.046;6.406;2022-07-23T04:38:53;14.70;99.90
29575;DHT22;16507;51.046;6.406;2022-07-23T04:41:19;14.70;99.90
29575;DHT22;16507;51.046;6.406;2022-07-23T04:43:45;14.80;99.90
29575;DHT22;16507;51.046;6.406;2022-07-23T04:46:11;15.00;99.90
29575;DHT22;16507;51.046;6.406;2022-07-23T04:48:36;15.30;99.90
29575;DHT22;16507;51.046;6.406;2022-07-23T04:51:02;15.30;99.90
29575;DHT22;16507;51.046;6.406;2022-07-23T04:53:28;15.50;99.90
29575;DHT22;16507;51.046;6.406;2022-07-23T04:55:54;15.70;99.90
29575;DHT22;16507;51.046;6.406;2022-07-23T04:58:20;15.80;99.90
29575;DHT22;16507;51.046;6.406;2022-07-23T05:00:46;15.70;99.90
29575;DHT22;16507;51.046;6.406;2022-07-23T05:03:11;15.70;99.90
29575;DHT22;16507;51.046;6.406;2022-07-23T05:05:37;15.60;99.90
29575;DHT22;16507;51.046;6.406;2022-07-23T05:08:03;15.70;99.90
29575;DHT22;16507;51.046;6.406;2022-07-23T05:10:28;15.70;99.90
29575;DHT22;16507;51.046;6.406;2022-07-23T05:12:54;15.80;99.90
29575;DHT22;16507;51.046;6.406;2022-07-23T05:15:20;15.80;99.90
29575;DHT22;16507;51.046;6.406;2022-07-23T05:17:46;15.90;99.90
29575;DHT22;16507;51.046;6.406;2022-07-23T05:20:12;15.90;99.90
29575;DHT22;16507;51.046;6.406;2022-07-23T05:22:38;16.00;99.90
29575;DHT22;16507;51.046;6.406;2022-07-23T05:25:04;16.10;99.90
29575;DHT22;16507;51.046;6.406;2022-07-23T05:27:30;16.10;99.90
29575;DHT22;16507;51.046;6.406;2022-07-23T05:29:56;16.20;99.90
29575;DHT22;16507;51.046;6.406;2022-07-23T05:32:25;16.20;99.90
29575;DHT22;16507;51.046;6.406;2022-07-23T05:34:51;16.20;99.90
29575;DHT22;16507;51.046;6.406;2022-07-23T05:37:17;16.30;99.90
29575;DHT22;16507;51.046;6.406;2022-07-23T05:39:42;16.30;99.90
29575;DHT22;16507;51.046;6.406;2022-07-23T05:42:08;16.40;99.90
29575;DHT22;16507;51.046;6.406;2022-07-23T05:44:34;16.40;99.90
29575;DHT22;16507;51.046;6.406;2022-07-23T05:47:00;16.60;99.90
29575;DHT22;16507;51.046;6.406;2022-07-23T05:49:27;16.60;99.90
29575;DHT22;16507;51.046;6.406;2022-07-23T05:51:52;16.70;99.90
29575;DHT22;16507;51.046;6.406;2022-07-23T05:54:18;16.80;99.90
29575;DHT22;16507;51.046;6.406;2022-07-23T05:56:43;16.90;99.90
29575;DHT22;16507;51.046;6.406;2022-07-23T05:59:09;16.90;99.90
29575;DHT22;16507;51.046;6.406;2022-07-23T06:01:35;16.80;99.90
29575;DHT22;16507;51.046;6.406;2022-07-23T06:04:00;16.90;99.90
29575;DHT22;16507;51.046;6.406;2022-07-23T06:06:26;16.90;99.90
29575;DHT22;16507;51.046;6.406;2022-07-23T06:08:51;16.90;99.90
29575;DHT22;16507;51.046;6.406;2022-07-23T06:11:17;17.10;99.90
29575;DHT22;16507;51.046;6.406;2022-07-23T06:13:42;17.10;99.90
29575;DHT22;16507;51.046;6.406;2022-07-23T06:16:08;17.20;99.90
29575;DHT22;16507;51.046;6.406;2022-07-23T06:18:34;17.20;99.90
29575;DHT22;16507;51.046;6.406;2022-07-23T06:20:59;17.40;99.90
29575;DHT22;16507;51.046;6.406;2022-07-23T06:23:25;17.50;99.90
29575;DHT22;16507;51.046;6.406;2022-07-23T06:25:51;17.50;99.90
29575;DHT22;16507;51.046;6.406;2022-07-23T06:28:17;17.70;99.90
29575;DHT22;16507;51.046;6.406;2022-07-23T06:30:43;17.80;99.90
29575;DHT22;16507;51.046;6.406;2022-07-23T06:33:08;18.00;99.90
29575;DHT22;16507;51.046;6.406;2022-07-23T06:35:35;18.10;99.90
29575;DHT22;16507;51.046;6.406;2022-07-23T06:38:00;18.20;99.90
29575;DHT22;16507;51.046;6.406;2022-07-23T06:40:26;18.30;99.90
29575;DHT22;16507;51.046;6.406;2022-07-23T06:42:52;18.50;99.90
29575;DHT22;16507;51.046;6.406;2022-07-23T06:45:18;18.40;99.90
29575;DHT22;16507;51.046;6.406;2022-07-23T06:47:44;18.30;99.90
29575;DHT22;16507;51.046;6.406;2022-07-23T06:50:10;18.30;99.90
29575;DHT22;16507;51.046;6.406;2022-07-23T06:52:35;18.30;99.90
29575;DHT22;16507;51.046;6.406;2022-07-23T06:55:01;18.30;99.90
29575;DHT22;16507;51.046;6.406;2022-07-23T06:57:39;18.30;99.90
29575;DHT22;16507;51.046;6.406;2022-07-23T07:00:05;18.40;99.90
29575;DHT22;16507;51.046;6.406;2022-07-23T07:02:31;18.50;99.90
29575;DHT22;16507;51.046;6.406;2022-07-23T07:04:57;18.70;99.90
29575;DHT22;16507;51.046;6.406;2022-07-23T07:07:23;18.80;99.90
29575;DHT22;16507;51.046;6.406;2022-07-23T07:09:48;18.90;99.90
29575;DHT22;16507;51.046;6.406;2022-07-23T07:12:14;19.10;99.90
29575;DHT22;16507;51.046;6.406;2022-07-23T07:14:40;19.10;99.90
29575;DHT22;16507;51.046;6.406;2022-07-23T07:17:05;19.30;99.90
29575;DHT22;16507;51.046;6.406;2022-07-23T07:19:31;19.30;99.90
29575;DHT22;16507;51.046;6.406;2022-07-23T07:21:56;19.20;99.90
29575;DHT22;16507;51.046;6.406;2022-07-23T07:24:22;19.20;99.90
29575;DHT22;16507;51.046;6.406;2022-07-23T07:26:48;19.20;99.90
29575;DHT22;16507;51.046;6.406;2022-07-23T07:29:13;19.20;99.90
29575;DHT22;16507;51.046;6.406;2022-07-23T07:31:39;19.30;99.90
29575;DHT22;16507;51.046;6.406;2022-07-23T07:34:05;19.60;99.90
29575;DHT22;16507;51.046;6.406;2022-07-23T07:36:30;19.60;99.90
29575;DHT22;16507;51.046;6.406;2022-07-23T07:38:56;19.70;99.90
29575;DHT22;16507;51.046;6.406;2022-07-23T07:41:22;19.70;99.90
29575;DHT22;16507;51.046;6.406;2022-07-23T07:43:50;19.50;99.90
29575;DHT22;16507;51.046;6.406;2022-07-23T07:46:15;19.60;99.90
29575;DHT22;16507;51.046;6.406;2022-07-23T07:48:41;19.70;99.90
29575;DHT22;16507;51.046;6.406;2022-07-23T07:51:07;20.00;99.90
29575;DHT22;16507;51.046;6.406;2022-07-23T07:53:33;19.90;99.90
29575;DHT22;16507;51.046;6.406;2022-07-23T07:55:58;19.90;99.90
29575;DHT22;16507;51.046;6.406;2022-07-23T07:58:24;20.10;99.90
29575;DHT22;16507;51.046;6.406;2022-07-23T08:00:50;20.30;99.90
29575;DHT22;16507;51.046;6.406;2022-07-23T08:03:16;20.60;99.90
29575;DHT22;16507;51.046;6.406;2022-07-23T08:05:42;20.80;99.90
29575;DHT22;16507;51.046;6.406;2022-07-23T08:08:08;20.70;99.90
29575;DHT22;16507;51.046;6.406;2022-07-23T08:10:35;20.40;99.90
29575;DHT22;16507;51.046;6.406;2022-07-23T08:13:01;20.30;99.90
29575;DHT22;16507;51.046;6.406;2022-07-23T08:15:28;20.30;99.90
29575;DHT22;16507;51.046;6.406;2022-07-23T08:17:55;20.20;99.90
29575;DHT22;16507;51.046;6.406;2022-07-23T08:20:22;19.90;99.90
29575;DHT22;16507;51.046;6.406;2022-07-23T08:25:14;19.50;99.90
29575;DHT22;16507;51.046;6.406;2022-07-23T08:27:39;19.70;99.90
29575;DHT22;16507;51.046;6.406;2022-07-23T08:30:06;20.00;99.90
29575;DHT22;16507;51.046;6.406;2022-07-23T08:32:32;20.20;99.90
29575;DHT22;16507;51.046;6.406;2022-07-23T08:34:57;20.00;99.90
29575;DHT22;16507;51.046;6.406;2022-07-23T08:37:23;20.20;99.90
29575;DHT22;16507;51.046;6.406;2022-07-23T08:39:48;20.40;99.90
29575;DHT22;16507;51.046;6.406;2022-07-23T08:42:14;20.50;99.90
29575;DHT22;16507;51.046;6.406;2022-07-23T08:44:44;21.00;99.90
29575;DHT22;16507;51.046;6.406;2022-07-23T08:47:11;21.20;99.90
29575;DHT22;16507;51.046;6.406;2022-07-23T08:49:38;21.00;99.90
29575;DHT22;16507;51.046;6.406;2022-07-23T08:52:04;21.00;99.90
29575;DHT22;16507;51.046;6.406;2022-07-23T08:54:31;21.20;99.90
29575;DHT22;16507;51.046;6.406;2022-07-23T08:56:58;21.20;99.90
29575;DHT22;16507;51.046;6.406;2022-07-23T08:59:24;21.10;99.90
29575;DHT22;16507;51.046;6.406;2022-07-23T09:01:52;21.20;99.90
29575;DHT22;16507;51.046;6.406;2022-07-23T09:04:17;21.30;99.90
29575;DHT22;16507;51.046;6.406;2022-07-23T09:06:43;21.50;99.90
29575;DHT22;16507;51.046;6.406;2022-07-23T09:09:19;21.60;99.90
29575;DHT22;16507;51.046;6.406;2022-07-23T09:12:05;21.60;99.90
29575;DHT22;16507;51.046;6.406;2022-07-23T09:14:44;21.90;99.90
29575;DHT22;16507;51.046;6.406;2022-07-23T09:17:15;21.80;99.90
29575;DHT22;16507;51.046;6.406;2022-07-23T09:19:41;21.90;99.90
29575;DHT22;16507;51.046;6.406;2022-07-23T09:22:24;22.20;99.90
29575;DHT22;16507;51.046;6.406;2022-07-23T09:25:08;22.00;99.90
29575;DHT22;16507;51.046;6.406;2022-07-23T09:30:13;22.20;99.90
29575;DHT22;16507;51.046;6.406;2022-07-23T09:32:39;22.30;99.90
29575;DHT22;16507;51.046;6.406;2022-07-23T09:35:05;22.30;99.90
29575;DHT22;16507;51.046;6.406;2022-07-23T09:37:31;21.90;99.90
29575;DHT22;16507;51.046;6.406;2022-07-23T09:40:05;21.90;99.90
29575;DHT22;16507;51.046;6.406;2022-07-23T09:42:31;22.10;99.90
29575;DHT22;16507;51.046;6.406;2022-07-23T09:44:58;22.30;99.90
29575;DHT22;16507;51.046;6.406;2022-07-23T09:47:27;22.70;99.90
29575;DHT22;16507;51.046;6.406;2022-07-23T09:52:33;23.00;99.90
29575;DHT22;16507;51.046;6.406;2022-07-23T09:55:04;22.40;99.90
29575;DHT22;16507;51.046;6.406;2022-07-23T09:57:31;22.60;99.90
29575;DHT22;16507;51.046;6.406;2022-07-23T10:00:00;22.70;99.90
29575;DHT22;16507;51.046;6.406;2022-07-23T10:02:27;22.60;99.90
29575;DHT22;16507;51.046;6.406;2022-07-23T10:04:54;22.70;99.90
29575;DHT22;16507;51.046;6.406;2022-07-23T10:07:25;22.60;99.90
29575;DHT22;16507;51.046;6.406;2022-07-23T10:09:52;22.90;99.90
29575;DHT22;16507;51.046;6.406;2022-07-23T10:12:19;22.70;99.90
29575;DHT22;16507;51.046;6.406;2022-07-23T10:14:45;22.90;99.90
29575;DHT22;16507;51.046;6.406;2022-07-23T10:17:11;23.50;99.90
29575;DHT22;16507;51.046;6.406;2022-07-23T10:19:38;23.40;99.90
29575;DHT22;16507;51.046;6.406;2022-07-23T10:22:07;23.60;99.90
29575;DHT22;16507;51.046;6.406;2022-07-23T10:35:33;24.00;99.90
29575;DHT22;16507;51.046;6.406;2022-07-23T10:38:15;24.20;99.90
29575;DHT22;16507;51.046;6.406;2022-07-23T10:41:10;24.50;99.90
29575;DHT22;16507;51.046;6.406;2022-07-23T10:43:35;24.20;97.70
29575;DHT22;16507;51.046;6.406;2022-07-23T10:46:21;24.20;99.90
29575;DHT22;16507;51.046;6.406;2022-07-23T10:54:56;24.30;99.90
29575;DHT22;16507;51.046;6.406;2022-07-23T10:57:26;24.50;98.00
29575;DHT22;16507;51.046;6.406;2022-07-23T11:02:42;24.20;98.70
29575;DHT22;16507;51.046;6.406;2022-07-23T11:05:10;24.00;97.60
29575;DHT22;16507;51.046;6.406;2022-07-23T11:08:09;24.20;99.90
29575;DHT22;16507;51.046;6.406;2022-07-23T11:10:43;24.40;97.00
29575;DHT22;16507;51.046;6.406;2022-07-23T11:32:00;24.70;93.10
29575;DHT22;16507;51.046;6.406;2022-07-23T11:37:07;24.70;99.20
29575;DHT22;16507;51.046;6.406;2022-07-23T11:39:33;24.80;95.30
29575;DHT22;16507;51.046;6.406;2022-07-23T11:42:01;24.90;92.20
29575;DHT22;16507;51.046;6.406;2022-07-23T11:44:33;24.80;90.00
29575;DHT22;16507;51.046;6.406;2022-07-23T11:47:06;24.90;92.00
29575;DHT22;16507;51.046;6.406;2022-07-23T11:49:33;25.10;91.20
29575;DHT22;16507;51.046;6.406;2022-07-23T11:52:12;25.10;89.40
29575;DHT22;16507;51.046;6.406;2022-07-23T11:55:10;24.90;90.00
29575;DHT22;16507;51.046;6.406;2022-07-23T11:57:39;24.90;90.10
29575;DHT22;16507;51.046;6.406;2022-07-23T12:02:37;25.10;90.50
29575;DHT22;16507;51.046;6.406;2022-07-23T12:05:04;25.70;89.60
29575;DHT22;16507;51.046;6.406;2022-07-23T12:10:09;26.40;92.10
29575;DHT22;16507;51.046;6.406;2022-07-23T12:15:08;26.10;77.70
29575;DHT22;16507;51.046;6.406;2022-07-23T12:17:36;25.70;75.40
29575;DHT22;16507;51.046;6.406;2022-07-23T12:20:05;25.70;76.00
29575;DHT22;16507;51.046;6.406;2022-07-23T12:22:37;25.70;74.20
29575;DHT22;16507;51.046;6.406;2022-07-23T12:25:12;25.80;73.20
29575;DHT22;16507;51.046;6.406;2022-07-23T12:27:38;25.90;71.80
29575;DHT22;16507;51.046;6.406;2022-07-23T12:32:47;26.60;71.30
29575;DHT22;16507;51.046;6.406;2022-07-23T12:35:13;26.70;74.60
29575;DHT22;16507;51.046;6.406;2022-07-23T12:37:44;26.30;71.10
29575;DHT22;16507;51.046;6.406;2022-07-23T12:40:26;26.40;68.20
29575;DHT22;16507;51.046;6.406;2022-07-23T12:42:56;26.40;69.30
29575;DHT22;16507;51.046;6.406;2022-07-23T12:45:22;26.40;70.80
29575;DHT22;16507;51.046;6.406;2022-07-23T12:48:06;26.60;70.00
29575;DHT22;16507;51.046;6.406;2022-07-23T12:50:44;26.50;67.90
29575;DHT22;16507;51.046;6.406;2022-07-23T12:53:16;26.50;71.00
29575;DHT22;16507;51.046;6.406;2022-07-23T12:55:44;26.00;73.40
29575;DHT22;16507;51.046;6.406;2022-07-23T13:03:30;26.70;68.20
29575;DHT22;16507;51.046;6.406;2022-07-23T13:05:56;28.10;65.90
29575;DHT22;16507;51.046;6.406;2022-07-23T13:08:22;29.60;58.10
29575;DHT22;16507;51.046;6.406;2022-07-23T13:10:49;30.10;53.80
29575;DHT22;16507;51.046;6.406;2022-07-23T13:13:19;31.10;49.80
29575;DHT22;16507;51.046;6.406;2022-07-23T13:15:45;32.00;42.00
29575;DHT22;16507;51.046;6.406;2022-07-23T13:18:11;31.90;37.20
29575;DHT22;16507;51.046;6.406;2022-07-23T13:20:37;32.10;36.20
29575;DHT22;16507;51.046;6.406;2022-07-23T13:23:07;30.90;37.10
29575;DHT22;16507;51.046;6.406;2022-07-23T13:25:33;31.00;37.70
29575;DHT22;16507;51.046;6.406;2022-07-23T13:27:59;31.50;44.70
29575;DHT22;16507;51.046;6.406;2022-07-23T13:30:25;31.80;37.80
29575;DHT22;16507;51.046;6.406;2022-07-23T13:32:50;30.80;34.60
29575;DHT22;16507;51.046;6.406;2022-07-23T13:35:16;29.90;40.00
29575;DHT22;16507;51.046;6.406;2022-07-23T13:37:42;28.50;40.60
29575;DHT22;16507;51.046;6.406;2022-07-23T13:40:07;27.50;46.10
29575;DHT22;16507;51.046;6.406;2022-07-23T13:42:33;27.90;45.00
29575;DHT22;16507;51.046;6.406;2022-07-23T13:44:59;28.40;44.50
29575;DHT22;16507;51.046;6.406;2022-07-23T13:47:25;28.00;46.50
29575;DHT22;16507;51.046;6.406;2022-07-23T13:49:50;28.00;43.00
29575;DHT22;16507;51.046;6.406;2022-07-23T13:52:16;27.60;47.70
29575;DHT22;16507;51.046;6.406;2022-07-23T13:54:42;27.00;45.00
29575;DHT22;16507;51.046;6.406;2022-07-23T13:57:07;27.20;45.60
29575;DHT22;16507;51.046;6.406;2022-07-23T13:59:34;27.30;47.10
29575;DHT22;16507;51.046;6.406;2022-07-23T14:02:02;27.70;46.00
29575;DHT22;16507;51.046;6.406;2022-07-23T14:04:28;27.70;47.70
29575;DHT22;16507;51.046;6.406;2022-07-23T14:06:54;27.40;44.40
29575;DHT22;16507;51.046;6.406;2022-07-23T14:09:19;27.40;49.30
29575;DHT22;16507;51.046;6.406;2022-07-23T14:11:45;27.80;48.00
29575;DHT22;16507;51.046;6.406;2022-07-23T14:14:11;27.90;44.60
29575;DHT22;16507;51.046;6.406;2022-07-23T14:16:36;27.70;45.00
29575;DHT22;16507;51.046;6.406;2022-07-23T14:19:02;27.70;47.80
29575;DHT22;16507;51.046;6.406;2022-07-23T14:21:28;27.60;46.50
29575;DHT22;16507;51.046;6.406;2022-07-23T14:23:53;28.00;52.90
29575;DHT22;16507;51.046;6.406;2022-07-23T14:26:19;28.30;47.10
29575;DHT22;16507;51.046;6.406;2022-07-23T14:28:45;28.20;42.90
29575;DHT22;16507;51.046;6.406;2022-07-23T14:31:11;28.10;48.20
29575;DHT22;16507;51.046;6.406;2022-07-23T14:33:36;28.30;48.80
29575;DHT22;16507;51.046;6.406;2022-07-23T14:36:02;28.10;43.30
29575;DHT22;16507;51.046;6.406;2022-07-23T14:38:28;27.70;41.40
29575;DHT22;16507;51.046;6.406;2022-07-23T14:40:56;28.00;42.80
29575;DHT22;16507;51.046;6.406;2022-07-23T14:43:22;27.80;42.00
29575;DHT22;16507;51.046;6.406;2022-07-23T14:45:48;28.20;43.30
29575;DHT22;16507;51.046;6.406;2022-07-23T14:48:14;28.10;42.90
29575;DHT22;16507;51.046;6.406;2022-07-23T14:50:40;27.50;45.10
29575;DHT22;16507;51.046;6.406;2022-07-23T14:53:06;27.00;44.50
29575;DHT22;16507;51.046;6.406;2022-07-23T14:55:32;27.40;43.90
29575;DHT22;16507;51.046;6.406;2022-07-23T14:57:57;27.10;43.40
29575;DHT22;16507;51.046;6.406;2022-07-23T15:00:23;27.00;47.60
29575;DHT22;16507;51.046;6.406;2022-07-23T15:02:49;27.30;49.20
29575;DHT22;16507;51.046;6.406;2022-07-23T15:05:14;27.70;46.80
29575;DHT22;16507;51.046;6.406;2022-07-23T15:10:06;27.50;42.90
29575;DHT22;16507;51.046;6.406;2022-07-23T15:12:32;27.60;44.40
29575;DHT22;16507;51.046;6.406;2022-07-23T15:14:58;27.30;46.00
29575;DHT22;16507;51.046;6.406;2022-07-23T15:17:23;27.30;45.50
29575;DHT22;16507;51.046;6.406;2022-07-23T15:19:50;27.50;45.70
29575;DHT22;16507;51.046;6.406;2022-07-23T15:22:16;27.70;45.80
29575;DHT22;16507;51.046;6.406;2022-07-23T15:24:42;27.70;48.00
29575;DHT22;16507;51.046;6.406;2022-07-23T15:27:08;27.80;48.00
29575;DHT22;16507;51.046;6.406;2022-07-23T15:29:33;27.90;46.20
29575;DHT22;16507;51.046;6.406;2022-07-23T15:31:59;28.10;46.70
29575;DHT22;16507;51.046;6.406;2022-07-23T15:34:28;28.40;44.50
29575;DHT22;16507;51.046;6.406;2022-07-23T15:36:53;27.80;44.90
29575;DHT22;16507;51.046;6.406;2022-07-23T15:39:19;27.60;46.70
29575;DHT22;16507;51.046;6.406;2022-07-23T15:41:45;27.90;46.70
29575;DHT22;16507;51.046;6.406;2022-07-23T15:44:11;27.90;47.30
29575;DHT22;16507;51.046;6.406;2022-07-23T15:46:37;28.20;46.20
29575;DHT22;16507;51.046;6.406;2022-07-23T15:49:05;27.60;43.70
29575;DHT22;16507;51.046;6.406;2022-07-23T15:51:34;27.90;45.70
29575;DHT22;16507;51.046;6.406;2022-07-23T15:53:59;28.70;46.40
29575;DHT22;16507;51.046;6.406;2022-07-23T15:56:25;28.80;46.20
29575;DHT22;16507;51.046;6.406;2022-07-23T15:58:51;28.10;44.40
29575;DHT22;16507;51.046;6.406;2022-07-23T16:01:16;28.10;45.30
29575;DHT22;16507;51.046;6.406;2022-07-23T16:03:42;27.50;43.00
29575;DHT22;16507;51.046;6.406;2022-07-23T16:06:08;27.10;43.90
29575;DHT22;16507;51.046;6.406;2022-07-23T16:08:34;26.80;44.40
29575;DHT22;16507;51.046;6.406;2022-07-23T16:11:00;26.70;45.10
29575;DHT22;16507;51.046;6.406;2022-07-23T16:13:26;26.50;44.80
29575;DHT22;16507;51.046;6.406;2022-07-23T16:15:52;26.50;47.70
29575;DHT22;16507;51.046;6.406;2022-07-23T16:18:22;26.60;44.20
29575;DHT22;16507;51.046;6.406;2022-07-23T16:20:52;26.80;46.00
29575;DHT22;16507;51.046;6.406;2022-07-23T16:23:18;26.80;45.20
29575;DHT22;16507;51.046;6.406;2022-07-23T16:25:44;26.80;47.10
29575;DHT22;16507;51.046;6.406;2022-07-23T16:28:09;27.00;48.00
29575;DHT22;16507;51.046;6.406;2022-07-23T16:30:36;27.30;44.30
29575;DHT22;16507;51.046;6.406;2022-07-23T16:33:02;27.30;44.70
29575;DHT22;16507;51.046;6.406;2022-07-23T16:35:28;27.70;42.60